createdAt,value
2022-12-04T00:00:41.563Z,11.65
2022-12-04T00:03:15.191Z,9.60
2022-12-04T00:05:48.588Z,10.20
2022-12-04T00:08:22.066Z,9.25
2022-12-04T00:10:55.831Z,8.73
2022-12-04T00:13:29.275Z,10.43
2022-12-04T00:16:04.481Z,11.12
2022-12-04T00:18:38.677Z,8.80
2022-12-04T00:21:14.520Z,10.08
2022-12-04T00:23:48.776Z,9.90
2022-12-04T00:26:24.122Z,10.40
2022-12-04T00:28:58.173Z,9.83
2022-12-04T00:31:32.294Z,8.43
2022-12-04T00:34:08.222Z,12.53
2022-12-04T00:36:40.884Z,13.32
2022-12-04T00:39:14.158Z,14.05
2022-12-04T00:41:47.505Z,9.80
2022-12-04T00:44:20.797Z,14.50
2022-12-04T00:46:54.109Z,11.68
2022-12-04T00:49:27.383Z,16.10
2022-12-04T00:52:00.626Z,15.32
2022-12-04T00:54:35.198Z,13.93
2022-12-04T00:57:08.856Z,15.00
2022-12-04T00:59:42.633Z,18.05
2022-12-04T01:02:16.602Z,10.53
2022-12-04T01:04:50.362Z,12.63
2022-12-04T01:07:23.861Z,13.88
2022-12-04T01:09:57.648Z,14.20
2022-12-04T01:12:31.446Z,10.55
2022-12-04T01:15:05.370Z,13.08
2022-12-04T01:17:39.079Z,8.03
2022-12-04T01:20:15.028Z,10.68
2022-12-04T01:22:48.297Z,13.00
2022-12-04T01:25:21.938Z,13.00
2022-12-04T01:27:55.314Z,11.88
2022-12-04T01:30:29.138Z,10.00
2022-12-04T01:33:02.589Z,14.38
2022-12-04T01:35:36.246Z,15.90
2022-12-04T01:38:09.826Z,12.18
2022-12-04T01:40:47.193Z,9.93
2022-12-04T01:43:21.306Z,9.20
2022-12-04T01:45:56.719Z,11.48
2022-12-04T01:48:32.874Z,9.60
2022-12-04T01:51:10.185Z,12.23
2022-12-04T01:53:45.926Z,13.10
2022-12-04T01:56:24.351Z,12.25
2022-12-04T01:59:00.385Z,12.23
2022-12-04T02:01:36.808Z,13.88
2022-12-04T02:04:10.542Z,13.60
2022-12-04T02:06:44.122Z,8.78
2022-12-04T02:09:23.010Z,10.45
2022-12-04T02:11:56.569Z,10.93
2022-12-04T02:14:35.675Z,12.45
2022-12-04T02:17:13.639Z,12.28
2022-12-04T02:20:04.250Z,12.03
2022-12-04T02:22:49.420Z,11.50
2022-12-04T02:25:27.580Z,14.53
2022-12-04T02:28:09.095Z,11.95
2022-12-04T02:30:45.768Z,11.83
2022-12-04T02:33:24.110Z,9.77
2022-12-04T02:36:01.074Z,12.88
2022-12-04T02:38:37.888Z,12.47
2022-12-04T02:41:15.185Z,12.03
2022-12-04T02:43:51.530Z,13.35
2022-12-04T02:46:27.808Z,9.95
2022-12-04T02:49:03.682Z,10.03
2022-12-04T02:51:39.999Z,8.28
2022-12-04T02:54:16.214Z,11.03
2022-12-04T02:56:51.908Z,13.13
2022-12-04T02:59:28.539Z,12.30
2022-12-04T03:02:04.951Z,8.53
2022-12-04T03:04:40.465Z,10.88
2022-12-04T03:07:17.336Z,11.05
2022-12-04T03:09:56.649Z,10.00
2022-12-04T03:12:33.228Z,10.23
2022-12-04T03:15:10.597Z,18.57
2022-12-04T03:20:20.574Z,13.30
2022-12-04T03:22:57.327Z,14.38
2022-12-04T03:25:34.070Z,15.30
2022-12-04T03:28:10.789Z,12.95
2022-12-04T03:30:47.291Z,12.13
2022-12-04T03:33:23.891Z,9.93
2022-12-04T03:36:00.182Z,14.38
2022-12-04T03:38:36.556Z,11.97
2022-12-04T03:41:12.914Z,10.20
2022-12-04T03:43:49.733Z,13.13
2022-12-04T03:46:26.765Z,12.13
2022-12-04T03:49:03.616Z,10.32
2022-12-04T03:51:39.923Z,14.30
2022-12-04T03:54:16.323Z,10.72
2022-12-04T03:56:53.570Z,14.55
2022-12-04T03:59:30.044Z,11.22
2022-12-04T04:02:06.619Z,13.65
2022-12-04T04:04:42.369Z,13.20
2022-12-04T04:07:18.562Z,11.35
2022-12-04T04:09:55.162Z,10.98
2022-12-04T04:12:31.829Z,9.10
2022-12-04T04:15:45.103Z,12.58
2022-12-04T04:21:18.983Z,7.75
2022-12-04T04:24:11.490Z,9.23
2022-12-04T04:26:48.049Z,12.28
2022-12-04T04:29:21.694Z,13.03
2022-12-04T04:31:57.911Z,13.93
2022-12-04T04:34:34.606Z,9.95
2022-12-04T04:37:10.775Z,9.28
2022-12-04T04:39:47.126Z,11.53
2022-12-04T04:42:24.421Z,10.25
2022-12-04T04:45:01.689Z,15.08
2022-12-04T04:50:12.970Z,12.95
2022-12-04T04:52:48.908Z,9.08
2022-12-04T04:55:23.180Z,10.53
2022-12-04T04:57:57.984Z,7.72
2022-12-04T05:00:31.933Z,10.08
2022-12-04T05:03:05.753Z,7.85
2022-12-04T05:05:39.345Z,12.33
2022-12-04T05:08:12.837Z,13.03
2022-12-04T05:10:46.356Z,11.83
2022-12-04T05:13:20.695Z,11.28
2022-12-04T05:16:00.711Z,9.78
2022-12-04T05:18:35.545Z,10.70
2022-12-04T05:21:10.855Z,8.08
2022-12-04T05:23:44.525Z,9.60
2022-12-04T05:26:18.250Z,9.18
2022-12-04T05:28:51.821Z,11.73
2022-12-04T05:31:25.653Z,13.18
2022-12-04T05:33:59.174Z,7.80
2022-12-04T05:36:32.932Z,10.45
2022-12-04T05:39:06.382Z,15.35
2022-12-04T05:41:39.836Z,10.23
2022-12-04T05:44:13.600Z,8.65
2022-12-04T05:46:47.334Z,11.18
2022-12-04T05:49:20.873Z,8.73
2022-12-04T05:51:54.554Z,11.70
2022-12-04T05:54:28.156Z,12.65
2022-12-04T05:57:02.029Z,11.00
2022-12-04T05:59:35.505Z,13.62
2022-12-04T06:02:08.752Z,10.58
2022-12-04T06:04:42.556Z,10.48
2022-12-04T06:07:16.069Z,9.73
2022-12-04T06:09:49.652Z,12.03
2022-12-04T06:12:23.081Z,11.63
2022-12-04T06:14:56.923Z,11.10
2022-12-04T06:17:30.578Z,12.23
2022-12-04T06:20:09.521Z,8.30
2022-12-04T06:22:39.610Z,11.10
2022-12-04T06:25:13.597Z,13.13
2022-12-04T06:27:47.220Z,13.20
2022-12-04T06:30:20.915Z,12.93
2022-12-04T06:32:54.455Z,10.70
2022-12-04T06:35:27.528Z,11.15
2022-12-04T06:38:01.213Z,11.57
2022-12-04T06:40:34.920Z,11.28
2022-12-04T06:43:08.382Z,10.85
2022-12-04T06:45:41.776Z,8.70
2022-12-04T06:48:15.400Z,10.55
2022-12-04T06:50:49.743Z,9.65
2022-12-04T06:53:23.196Z,10.80
2022-12-04T06:55:56.719Z,13.28
2022-12-04T06:58:30.848Z,12.13
2022-12-04T07:01:08.702Z,7.92
2022-12-04T07:03:47.832Z,12.25
2022-12-04T07:06:19.231Z,10.10
2022-12-04T07:08:54.658Z,7.50
2022-12-04T07:11:28.692Z,11.85
2022-12-04T07:14:02.525Z,8.15
2022-12-04T07:16:40.769Z,9.80
2022-12-04T07:19:11.264Z,10.88
2022-12-04T07:21:44.834Z,9.23
2022-12-04T07:24:19.786Z,10.93
2022-12-04T07:26:53.444Z,9.25
2022-12-04T07:29:26.936Z,10.50
2022-12-04T07:32:00.691Z,10.15
2022-12-04T07:34:35.806Z,9.70
2022-12-04T07:37:09.157Z,9.68
2022-12-04T07:39:42.770Z,10.03
2022-12-04T07:42:19.717Z,9.73
2022-12-04T07:44:51.379Z,10.63
2022-12-04T07:47:24.875Z,10.08
2022-12-04T07:49:58.518Z,10.78
2022-12-04T07:52:32.035Z,10.65
2022-12-04T07:55:06.600Z,7.50
2022-12-04T07:57:40.205Z,9.83
2022-12-04T08:00:16.773Z,10.43
2022-12-04T08:02:50.928Z,8.85
2022-12-04T08:05:24.316Z,9.65
2022-12-04T08:07:57.693Z,9.43
2022-12-04T08:10:31.000Z,7.47
2022-12-04T08:13:04.666Z,9.75
2022-12-04T08:15:38.140Z,8.78
2022-12-04T08:18:11.858Z,9.73
2022-12-04T08:20:45.488Z,9.43
2022-12-04T08:23:19.008Z,8.45
2022-12-04T08:25:52.350Z,9.78
2022-12-04T08:28:26.014Z,8.80
2022-12-04T08:31:04.959Z,10.95
2022-12-04T08:33:38.574Z,8.18
2022-12-04T08:36:15.181Z,10.00
2022-12-04T08:38:49.711Z,10.78
2022-12-04T08:41:26.254Z,9.30
2022-12-04T08:44:01.073Z,8.25
2022-12-04T08:46:35.026Z,10.08
2022-12-04T08:49:08.478Z,9.13
2022-12-04T08:51:42.378Z,11.38
2022-12-04T08:54:16.778Z,8.30
2022-12-04T08:56:50.110Z,7.90
2022-12-04T08:59:23.405Z,8.30
2022-12-04T09:01:57.236Z,10.55
2022-12-04T09:04:30.868Z,10.03
2022-12-04T09:07:04.498Z,10.23
2022-12-04T09:09:38.011Z,10.32
2022-12-04T09:12:11.178Z,13.13
2022-12-04T09:14:44.828Z,10.35
2022-12-04T09:17:18.528Z,10.55
2022-12-04T09:19:55.500Z,7.80
2022-12-04T09:22:40.393Z,8.28
2022-12-04T09:25:02.272Z,8.55
2022-12-04T09:27:41.498Z,9.10
2022-12-04T09:30:16.215Z,7.55
2022-12-04T09:32:49.880Z,10.03
2022-12-04T09:35:23.278Z,9.03
2022-12-04T09:37:56.888Z,9.20
2022-12-04T09:40:37.631Z,8.85
2022-12-04T09:43:10.336Z,7.08
2022-12-04T09:45:46.906Z,9.70
2022-12-04T09:48:22.687Z,8.00
2022-12-04T09:50:56.658Z,7.92
2022-12-04T09:53:34.917Z,7.28
2022-12-04T09:56:12.482Z,7.72
2022-12-04T09:58:48.939Z,8.18
2022-12-04T10:01:26.152Z,6.90
2022-12-04T10:04:05.750Z,7.37
2022-12-04T10:06:37.373Z,7.28
2022-12-04T10:09:13.669Z,6.12
2022-12-04T10:11:52.420Z,6.90
2022-12-04T10:15:01.404Z,6.85
2022-12-04T10:17:56.001Z,7.92
2022-12-04T10:20:44.817Z,7.97
2022-12-04T10:23:21.746Z,8.33
2022-12-04T10:25:56.641Z,7.77
2022-12-04T10:28:33.196Z,6.20
2022-12-04T10:31:09.220Z,7.95
2022-12-04T10:33:47.503Z,9.90
2022-12-04T10:36:23.948Z,7.08
2022-12-04T10:39:01.092Z,6.85
2022-12-04T10:41:38.869Z,6.77
2022-12-04T10:46:46.642Z,7.60
2022-12-04T10:49:22.822Z,7.70
2022-12-04T10:51:57.448Z,7.25
2022-12-04T10:54:33.805Z,8.15
2022-12-04T10:57:09.487Z,9.85
2022-12-04T10:59:51.465Z,6.60
2022-12-04T11:02:29.292Z,10.70
2022-12-04T11:05:04.436Z,10.15
2022-12-04T11:07:40.567Z,5.55
2022-12-04T11:10:24.833Z,7.57
2022-12-04T11:13:00.372Z,9.05
2022-12-04T11:15:35.279Z,9.83
2022-12-04T11:18:16.049Z,7.47
2022-12-04T11:20:56.018Z,8.83
2022-12-04T11:23:31.527Z,7.83
2022-12-04T11:26:06.364Z,7.53
2022-12-04T11:28:42.739Z,9.03
2022-12-04T11:31:21.754Z,7.30
2022-12-04T11:33:57.306Z,7.10
2022-12-04T11:36:33.591Z,8.60
2022-12-04T11:39:10.495Z,7.03
2022-12-04T11:41:44.044Z,7.33
2022-12-04T11:44:27.046Z,7.67
2022-12-04T11:47:02.851Z,7.40
2022-12-04T11:49:42.233Z,7.78
2022-12-04T11:52:19.096Z,7.35
2022-12-04T11:54:59.238Z,9.50
2022-12-04T11:57:38.159Z,6.40
2022-12-04T12:00:16.803Z,9.10
2022-12-04T12:06:12.366Z,8.48
2022-12-04T12:08:59.210Z,7.95
2022-12-04T12:11:35.993Z,7.47
2022-12-04T12:14:15.467Z,7.17
2022-12-04T12:16:56.267Z,10.03
2022-12-04T12:19:47.358Z,7.30
2022-12-04T12:22:28.192Z,7.83
2022-12-04T12:25:05.941Z,5.90
2022-12-04T12:27:48.205Z,5.92
2022-12-04T12:30:24.004Z,7.10
2022-12-04T12:33:12.248Z,7.83
2022-12-04T12:35:49.359Z,7.37
2022-12-04T12:38:25.472Z,6.65
2022-12-04T12:41:02.275Z,7.70
2022-12-04T12:43:39.375Z,8.60
2022-12-04T12:46:16.594Z,7.37
2022-12-04T12:48:58.106Z,6.20
2022-12-04T12:51:33.800Z,6.45
2022-12-04T12:54:15.796Z,6.15
2022-12-04T12:56:51.958Z,6.08
2022-12-04T12:59:28.310Z,7.28
2022-12-04T13:02:05.366Z,6.35
2022-12-04T13:04:42.286Z,5.30
2022-12-04T13:07:27.216Z,6.73
2022-12-04T13:10:04.782Z,8.40
2022-12-04T13:12:41.139Z,8.15
2022-12-04T13:15:18.751Z,8.08
2022-12-04T13:20:28.583Z,5.65
2022-12-04T13:23:11.272Z,8.73
2022-12-04T13:25:50.756Z,6.78
2022-12-04T13:28:34.077Z,6.25
2022-12-04T13:31:13.993Z,7.12
2022-12-04T13:34:13.256Z,6.67
2022-12-04T13:37:12.967Z,6.28
2022-12-04T13:40:37.211Z,6.12
2022-12-04T13:43:22.001Z,4.72
2022-12-04T13:45:58.251Z,8.13
2022-12-04T13:48:40.612Z,9.18
2022-12-04T13:51:39.993Z,5.83
2022-12-04T13:54:27.018Z,5.95
2022-12-04T13:57:13.729Z,7.62
2022-12-04T13:59:48.943Z,6.83
2022-12-04T14:02:29.181Z,7.47
2022-12-04T14:05:05.860Z,6.12
2022-12-04T14:07:41.128Z,4.72
2022-12-04T14:10:29.779Z,7.58
2022-12-04T14:13:06.067Z,8.10
2022-12-04T14:15:41.682Z,5.25
2022-12-04T14:18:23.550Z,7.25
2022-12-04T14:21:04.344Z,7.10
2022-12-04T14:23:40.815Z,6.08
2022-12-04T14:26:48.951Z,5.90
2022-12-04T14:29:19.017Z,5.55
2022-12-04T14:31:53.602Z,6.87
2022-12-04T14:35:02.479Z,6.83
2022-12-04T14:37:48.472Z,6.35
2022-12-04T14:40:31.256Z,6.87
2022-12-04T14:43:09.965Z,5.25
2022-12-04T14:45:49.888Z,7.15
2022-12-04T14:48:30.873Z,7.53
2022-12-04T14:51:08.967Z,5.75
2022-12-04T14:53:45.788Z,5.95
2022-12-04T14:56:28.012Z,6.72
2022-12-04T14:59:02.918Z,5.72
2022-12-04T15:01:38.441Z,6.60
2022-12-04T15:04:17.660Z,6.35
2022-12-04T15:06:56.915Z,4.12
2022-12-04T15:09:45.387Z,6.87
2022-12-04T15:12:37.323Z,5.45
2022-12-04T15:15:21.433Z,8.20
2022-12-04T15:18:02.882Z,6.70
2022-12-04T15:20:39.511Z,7.75
2022-12-04T15:23:15.030Z,6.90
2022-12-04T15:25:50.934Z,7.50
2022-12-04T15:28:26.888Z,5.28
2022-12-04T15:31:02.383Z,7.50
2022-12-04T15:33:38.676Z,7.87
2022-12-04T15:36:16.118Z,5.90
2022-12-04T15:38:51.132Z,6.75
2022-12-04T15:41:34.303Z,4.92
2022-12-04T15:44:24.807Z,6.22
2022-12-04T15:47:00.942Z,5.72
2022-12-04T15:49:34.957Z,7.35
2022-12-04T15:52:15.592Z,6.87
2022-12-04T15:54:52.013Z,6.95
2022-12-04T15:57:28.507Z,8.68
2022-12-04T16:00:05.472Z,6.20
2022-12-04T16:02:42.876Z,5.92
2022-12-04T16:05:24.519Z,6.42
2022-12-04T16:07:59.957Z,8.78
2022-12-04T16:10:35.580Z,5.37
2022-12-04T16:13:29.410Z,8.13
2022-12-04T16:16:04.308Z,8.65
2022-12-04T16:18:39.292Z,8.40
2022-12-04T16:21:15.633Z,4.40
2022-12-04T16:23:48.633Z,6.42
2022-12-04T16:26:22.835Z,5.05
2022-12-04T16:28:55.903Z,8.45
2022-12-04T16:31:30.193Z,5.53
2022-12-04T16:34:03.657Z,7.67
2022-12-04T16:36:37.446Z,6.20
2022-12-04T16:39:10.818Z,5.78
2022-12-04T16:41:43.967Z,7.08
2022-12-04T16:44:18.480Z,4.97
2022-12-04T16:46:53.014Z,5.45
2022-12-04T16:49:26.212Z,5.83
2022-12-04T16:52:03.801Z,6.37
2022-12-04T16:54:37.856Z,5.83
2022-12-04T16:57:11.577Z,7.58
2022-12-04T16:59:44.623Z,5.55
2022-12-04T17:02:20.995Z,4.90
2022-12-04T17:05:04.417Z,5.87
2022-12-04T17:07:37.979Z,5.72
2022-12-04T17:10:12.805Z,6.87
2022-12-04T17:12:46.579Z,4.92
2022-12-04T17:15:19.662Z,6.90
2022-12-04T17:17:53.140Z,6.25
2022-12-04T17:20:27.413Z,6.17
2022-12-04T17:23:00.987Z,4.55
2022-12-04T17:25:34.105Z,9.60
2022-12-04T17:28:07.699Z,6.20
2022-12-04T17:30:40.818Z,5.85
2022-12-04T17:33:13.851Z,4.85
2022-12-04T17:35:47.762Z,5.62
2022-12-04T17:38:20.897Z,6.42
2022-12-04T17:41:02.390Z,6.08
2022-12-04T17:43:36.216Z,5.03
2022-12-04T17:46:13.285Z,7.70
2022-12-04T17:48:46.977Z,6.08
2022-12-04T17:51:22.204Z,6.22
2022-12-04T17:53:55.607Z,4.55
2022-12-04T17:56:28.812Z,5.20
2022-12-04T17:59:02.000Z,6.33
2022-12-04T18:01:35.755Z,6.62
2022-12-04T18:04:09.753Z,7.12
2022-12-04T18:06:44.835Z,4.83
2022-12-04T18:09:18.927Z,8.08
2022-12-04T18:11:52.267Z,4.78
2022-12-04T18:14:25.648Z,6.62
2022-12-04T18:17:01.250Z,5.20
2022-12-04T18:19:35.556Z,6.47
2022-12-04T18:22:08.741Z,5.65
2022-12-04T18:24:42.136Z,6.67
2022-12-04T18:27:15.343Z,4.65
2022-12-04T18:29:48.473Z,6.53
2022-12-04T18:32:21.557Z,4.65
2022-12-04T18:34:55.714Z,6.42
2022-12-04T18:37:28.872Z,6.33
2022-12-04T18:40:06.507Z,6.08
2022-12-04T18:42:37.034Z,5.65
2022-12-04T18:45:12.317Z,5.30
2022-12-04T18:47:48.208Z,7.28
2022-12-04T18:50:22.011Z,4.70
2022-12-04T18:53:00.906Z,6.50
2022-12-04T18:55:33.755Z,4.72
2022-12-04T18:58:08.004Z,5.70
2022-12-04T19:00:42.605Z,4.37
2022-12-04T19:03:16.864Z,5.37
2022-12-04T19:05:51.891Z,5.75
2022-12-04T19:08:31.361Z,5.58
2022-12-04T19:11:07.720Z,6.75
2022-12-04T19:13:41.577Z,4.83
2022-12-04T19:16:16.495Z,6.35
2022-12-04T19:18:50.345Z,4.28
2022-12-04T19:21:24.357Z,5.67
2022-12-04T19:24:00.843Z,5.78
2022-12-04T19:26:35.810Z,5.37
2022-12-04T19:29:10.318Z,5.42
2022-12-04T19:31:44.505Z,5.17
2022-12-04T19:34:18.529Z,5.70
2022-12-04T19:36:52.367Z,5.78
2022-12-04T19:39:26.069Z,5.90
2022-12-04T19:42:00.041Z,4.35
2022-12-04T19:44:48.297Z,7.50
2022-12-04T19:47:12.503Z,8.80
2022-12-04T19:49:46.676Z,6.20
2022-12-04T19:52:20.457Z,6.65
2022-12-04T19:54:54.311Z,5.30
2022-12-04T19:57:28.233Z,6.67
2022-12-04T20:00:02.468Z,5.75
2022-12-04T20:02:38.876Z,4.58
2022-12-04T20:05:13.181Z,5.87
2022-12-04T20:07:47.011Z,5.25
2022-12-04T20:10:21.453Z,3.40
2022-12-04T20:12:55.507Z,6.30
2022-12-04T20:15:29.331Z,5.67
2022-12-04T20:18:03.314Z,6.97
2022-12-04T20:20:37.129Z,4.95
2022-12-04T20:23:10.847Z,4.80
2022-12-04T20:25:44.538Z,7.62
2022-12-04T20:28:18.655Z,6.17
2022-12-04T20:30:53.235Z,4.90
2022-12-04T20:33:27.003Z,6.40
2022-12-04T20:36:02.564Z,8.45
2022-12-04T20:38:36.667Z,6.10
2022-12-04T20:41:13.468Z,5.67
2022-12-04T20:43:48.462Z,7.40
2022-12-04T20:46:24.342Z,6.78
2022-12-04T20:48:58.929Z,4.90
2022-12-04T20:51:35.024Z,4.70
2022-12-04T20:54:10.347Z,8.05
2022-12-04T20:56:44.158Z,6.30
2022-12-04T20:59:19.767Z,5.53
2022-12-04T21:01:54.833Z,5.20
2022-12-04T21:04:28.722Z,6.40
2022-12-04T21:07:02.555Z,5.10
2022-12-04T21:09:36.623Z,4.42
2022-12-04T21:12:29.249Z,4.12
2022-12-04T21:15:20.555Z,4.58
2022-12-04T21:17:55.365Z,5.53
2022-12-04T21:20:29.375Z,4.70
2022-12-04T21:23:03.183Z,6.53
2022-12-04T21:25:37.480Z,4.95
2022-12-04T21:28:11.398Z,5.78
2022-12-04T21:30:45.197Z,5.70
2022-12-04T21:33:18.890Z,6.22
2022-12-04T21:35:52.888Z,3.92
2022-12-04T21:38:26.804Z,8.30
2022-12-04T21:41:00.694Z,6.83
2022-12-04T21:43:34.501Z,4.55
2022-12-04T21:46:09.821Z,6.00
2022-12-04T21:48:43.050Z,5.75
2022-12-04T21:51:39.942Z,8.10
2022-12-04T21:53:50.965Z,6.55
2022-12-04T21:56:24.144Z,5.95
2022-12-04T21:58:57.376Z,7.08
2022-12-04T22:01:30.933Z,5.85
2022-12-04T22:04:04.195Z,5.90
2022-12-04T22:06:38.034Z,6.22
2022-12-04T22:09:13.452Z,6.97
2022-12-04T22:11:46.869Z,5.55
2022-12-04T22:14:20.165Z,7.67
2022-12-04T22:16:54.372Z,8.53
2022-12-04T22:19:27.362Z,6.62
2022-12-04T22:22:00.470Z,7.55
2022-12-04T22:24:34.178Z,6.78
2022-12-04T22:27:09.599Z,5.37
2022-12-04T22:30:02.257Z,7.35
2022-12-04T22:32:19.459Z,7.62
2022-12-04T22:34:53.088Z,5.72
2022-12-04T22:37:28.244Z,8.18
2022-12-04T22:40:02.301Z,6.85
2022-12-04T22:42:36.050Z,4.42
2022-12-04T22:45:11.292Z,5.03
2022-12-04T22:47:45.299Z,7.03
2022-12-04T22:50:20.127Z,5.95
2022-12-04T22:52:53.933Z,6.58
2022-12-04T22:55:27.628Z,6.78
2022-12-04T22:58:01.355Z,9.20
2022-12-04T23:00:35.138Z,7.30
2022-12-04T23:03:08.928Z,6.95
2022-12-04T23:05:42.787Z,5.85
2022-12-04T23:08:16.460Z,7.53
2022-12-04T23:10:50.283Z,6.17
2022-12-04T23:13:24.077Z,5.53
2022-12-04T23:15:57.952Z,5.45
2022-12-04T23:18:31.973Z,7.53
2022-12-04T23:21:07.592Z,6.00
2022-12-04T23:23:43.612Z,4.83
2022-12-04T23:26:18.966Z,7.10
2022-12-04T23:28:53.129Z,4.05
2022-12-04T23:31:27.253Z,7.05
2022-12-04T23:34:01.991Z,5.15
2022-12-04T23:36:35.893Z,6.47
2022-12-04T23:39:09.832Z,4.90
2022-12-04T23:41:43.651Z,5.17
2022-12-04T23:44:17.518Z,6.15
2022-12-04T23:46:51.356Z,5.22
2022-12-04T23:49:25.209Z,6.53
2022-12-04T23:51:59.045Z,4.62
2022-12-04T23:54:35.151Z,7.75
2022-12-04T23:57:09.626Z,6.90
2022-12-04T23:59:43.586Z,7.08
